createdAt,value
2023-05-21T00:01:17.022Z,100505.50
2023-05-21T00:04:32.030Z,100507.87
2023-05-21T00:07:40.618Z,100512.03
2023-05-21T00:10:55.025Z,100491.88
2023-05-21T00:14:04.057Z,100515.28
2023-05-21T00:17:19.103Z,100503.66
2023-05-21T00:20:21.105Z,100509.56
2023-05-21T00:23:36.033Z,100506.38
2023-05-21T00:26:51.024Z,100503.41
2023-05-21T00:30:06.036Z,100497.16
2023-05-21T00:33:14.557Z,100514.87
2023-05-21T00:36:23.035Z,100510.78
2023-05-21T00:39:44.985Z,100516.97
2023-05-21T00:43:03.060Z,100497.59
2023-05-21T00:46:15.248Z,100502.84
2023-05-21T00:49:24.010Z,100503.03
2023-05-21T00:52:38.990Z,100500.66
2023-05-21T00:55:47.644Z,100508.00
2023-05-21T00:59:02.996Z,100506.72
2023-05-21T01:02:18.068Z,100504.66
2023-05-21T01:05:20.193Z,100495.94
2023-05-21T01:08:36.019Z,100478.66
2023-05-21T01:11:53.985Z,100495.19
2023-05-21T01:14:56.563Z,100494.91
2023-05-21T01:18:11.040Z,100499.06
2023-05-21T01:21:24.976Z,100500.50
2023-05-21T01:24:40.998Z,100490.81
2023-05-21T01:27:49.046Z,100493.22
2023-05-21T01:31:09.003Z,100501.37
2023-05-21T01:34:22.039Z,100500.59
2023-05-21T01:37:48.019Z,100506.66
2023-05-21T01:41:17.020Z,100498.03
2023-05-21T01:44:26.049Z,100500.75
2023-05-21T01:47:43.040Z,100500.12
2023-05-21T01:51:00.008Z,100502.34
2023-05-21T01:54:15.011Z,100493.81
2023-05-21T01:57:17.862Z,100491.56
2023-05-21T02:00:34.039Z,100507.66
2023-05-21T02:03:42.716Z,100509.25
2023-05-21T02:06:51.051Z,100501.28
2023-05-21T02:10:06.004Z,100498.13
2023-05-21T02:13:08.122Z,100493.19
2023-05-21T02:16:23.081Z,100480.97
2023-05-21T02:19:31.677Z,100490.66
2023-05-21T02:22:40.026Z,100494.19
2023-05-21T02:25:48.682Z,100493.72
2023-05-21T02:29:04.029Z,100497.03
2023-05-21T02:32:19.016Z,100501.66
2023-05-21T02:35:34.263Z,100500.09
2023-05-21T02:38:43.028Z,100488.44
2023-05-21T02:41:58.254Z,100492.47
2023-05-21T02:45:07.055Z,100490.22
2023-05-21T02:48:15.539Z,100485.47
2023-05-21T02:51:24.046Z,100486.28
2023-05-21T02:54:39.026Z,100488.66
2023-05-21T02:57:48.308Z,100487.03
2023-05-21T03:01:03.038Z,100493.25
2023-05-21T03:04:18.039Z,100491.97
2023-05-21T03:07:20.151Z,100487.87
2023-05-21T03:10:35.062Z,100487.22
2023-05-21T03:13:36.930Z,100487.22
2023-05-21T03:16:59.109Z,100479.59
2023-05-21T03:20:01.038Z,100479.12
2023-05-21T03:23:16.867Z,100479.59
2023-05-21T03:26:26.434Z,100476.88
2023-05-21T03:29:35.048Z,100476.41
2023-05-21T03:32:43.776Z,100478.44
2023-05-21T03:35:59.039Z,100479.12
2023-05-21T03:39:07.033Z,100485.78
2023-05-21T03:42:29.043Z,100488.81
2023-05-21T03:45:37.988Z,100488.19
2023-05-21T03:48:47.032Z,100491.19
2023-05-21T03:52:02.046Z,100495.31
2023-05-21T03:55:17.041Z,100495.59
2023-05-21T03:58:25.068Z,100498.16
2023-05-21T04:01:33.652Z,100505.47
2023-05-21T04:04:48.225Z,100504.16
2023-05-21T04:07:50.175Z,100510.34
2023-05-21T04:11:05.059Z,100504.94
2023-05-21T04:14:14.051Z,100510.31
2023-05-21T04:17:22.699Z,100511.91
2023-05-21T04:20:31.026Z,100510.25
2023-05-21T04:23:39.789Z,100515.19
2023-05-21T04:26:48.080Z,100511.63
2023-05-21T04:30:11.048Z,100519.59
2023-05-21T04:33:13.399Z,100511.28
2023-05-21T04:36:28.050Z,100516.03
2023-05-21T04:39:30.511Z,100496.31
2023-05-21T04:42:45.108Z,100513.94
2023-05-21T04:45:53.039Z,100501.47
2023-05-21T04:49:09.065Z,100501.72
2023-05-21T04:52:17.658Z,100495.28
2023-05-21T04:55:26.068Z,100489.50
2023-05-21T04:58:41.040Z,100488.56
2023-05-21T05:01:49.610Z,100491.13
2023-05-21T05:04:58.052Z,100486.62
2023-05-21T05:08:06.688Z,100493.22
2023-05-21T05:11:15.058Z,100489.50
2023-05-21T05:14:30.097Z,100491.22
2023-05-21T05:17:32.025Z,100494.00
2023-05-21T05:20:47.081Z,100490.72
2023-05-21T05:23:55.082Z,100482.84
2023-05-21T05:27:10.115Z,100488.84
2023-05-21T05:30:18.680Z,100492.94
2023-05-21T05:33:27.065Z,100487.28
2023-05-21T05:36:42.053Z,100496.81
2023-05-21T05:39:43.950Z,100492.38
2023-05-21T05:43:06.044Z,100494.44
2023-05-21T05:46:14.129Z,100482.78
2023-05-21T05:49:22.715Z,100489.06
2023-05-21T05:52:38.082Z,100490.88
2023-05-21T05:55:53.072Z,100489.62
2023-05-21T05:59:02.087Z,100493.84
2023-05-21T06:02:10.691Z,100488.50
2023-05-21T06:05:19.106Z,100489.44
2023-05-21T06:08:35.457Z,100473.44
2023-05-21T06:11:38.838Z,100483.06
2023-05-21T06:14:54.054Z,100481.81
2023-05-21T06:18:02.116Z,100485.97
2023-05-21T06:21:10.658Z,100488.59
2023-05-21T06:24:25.056Z,100480.50
2023-05-21T06:27:33.066Z,100476.16
2023-05-21T06:30:48.052Z,100465.72
2023-05-21T06:33:56.885Z,100463.38
2023-05-21T06:37:12.043Z,100461.50
2023-05-21T06:40:13.889Z,100471.88
2023-05-21T06:43:36.053Z,100466.31
2023-05-21T06:46:45.062Z,100466.12
2023-05-21T06:50:00.096Z,100453.50
2023-05-21T06:53:02.119Z,100460.16
2023-05-21T06:56:17.084Z,100456.12
2023-05-21T06:59:19.006Z,100451.16
2023-05-21T07:02:34.162Z,100434.69
2023-05-21T07:05:49.088Z,100440.31
2023-05-21T07:08:57.104Z,100440.81
2023-05-21T07:12:12.085Z,100435.09
2023-05-21T07:15:20.747Z,100442.72
2023-05-21T07:18:36.079Z,100438.62
2023-05-21T07:21:51.087Z,100438.97
2023-05-21T07:24:59.671Z,100446.72
2023-05-21T07:28:08.060Z,100440.47
2023-05-21T07:31:16.691Z,100434.38
2023-05-21T07:34:32.091Z,100441.25
2023-05-21T07:37:34.050Z,100439.31
2023-05-21T07:40:56.069Z,100442.88
2023-05-21T07:44:11.073Z,100432.34
2023-05-21T07:47:19.094Z,100439.94
2023-05-21T07:50:34.140Z,100434.53
2023-05-21T07:53:35.958Z,100437.41
2023-05-21T07:56:51.107Z,100426.50
2023-05-21T07:59:59.104Z,100435.28
2023-05-21T08:03:07.781Z,100429.50
2023-05-21T08:06:23.105Z,100425.00
2023-05-21T08:09:32.109Z,100438.25
2023-05-21T08:12:40.658Z,100430.09
2023-05-21T08:15:51.312Z,100425.38
2023-05-21T08:19:01.767Z,100444.37
2023-05-21T08:22:10.114Z,100440.84
2023-05-21T08:25:25.110Z,100437.53
2023-05-21T08:28:40.083Z,100441.22
2023-05-21T08:31:55.157Z,100439.63
2023-05-21T08:34:57.053Z,100434.81
2023-05-21T08:38:12.108Z,100436.38
2023-05-21T08:41:21.639Z,100437.47
2023-05-21T08:44:40.104Z,100429.44
2023-05-21T08:47:50.267Z,100444.37
2023-05-21T08:50:59.687Z,100440.44
2023-05-21T08:54:14.107Z,100423.69
2023-05-21T08:57:17.370Z,100440.69
2023-05-21T09:00:32.100Z,100419.94
2023-05-21T09:03:41.201Z,100421.97
2023-05-21T09:06:50.236Z,100428.25
2023-05-21T09:10:11.111Z,100427.47
2023-05-21T09:13:21.051Z,100423.53
2023-05-21T09:16:36.154Z,100422.69
2023-05-21T09:19:45.112Z,100415.94
2023-05-21T09:23:01.118Z,100416.41
2023-05-21T09:26:19.117Z,100420.34
2023-05-21T09:29:34.180Z,100417.25
2023-05-21T09:32:43.768Z,100417.22
2023-05-21T09:35:52.128Z,100421.97
2023-05-21T09:39:00.695Z,100413.72
2023-05-21T09:42:16.126Z,100423.91
2023-05-21T09:45:34.363Z,100418.00
2023-05-21T09:48:50.204Z,100425.88
2023-05-21T09:51:56.290Z,100418.03
2023-05-21T09:55:18.148Z,100419.59
2023-05-21T09:58:29.130Z,100385.38
2023-05-21T10:01:38.435Z,100411.91
2023-05-21T10:04:57.137Z,100403.53
2023-05-21T10:08:09.223Z,100410.00
2023-05-21T10:11:26.144Z,100385.00
2023-05-21T10:14:42.144Z,100397.50
2023-05-21T10:17:52.857Z,100399.78
2023-05-21T10:21:09.132Z,100398.00
2023-05-21T10:24:18.394Z,100390.69
2023-05-21T10:27:36.175Z,100388.44
2023-05-21T10:30:45.887Z,100389.66
2023-05-21T10:33:55.141Z,100373.50
2023-05-21T10:37:14.159Z,100387.00
2023-05-21T10:40:29.160Z,100386.91
2023-05-21T10:43:52.159Z,100377.25
2023-05-21T10:47:12.589Z,100384.25
2023-05-21T10:50:36.319Z,100376.09
2023-05-21T10:54:26.249Z,100374.53
2023-05-21T10:58:04.135Z,100377.53
2023-05-21T11:01:07.853Z,100373.19
2023-05-21T11:04:23.162Z,100370.47
2023-05-21T11:07:52.299Z,100371.63
2023-05-21T11:11:07.138Z,100378.25
2023-05-21T11:14:47.463Z,100362.94
2023-05-21T11:17:57.116Z,100371.91
2023-05-21T11:21:13.170Z,100363.25
2023-05-21T11:24:28.185Z,100363.47
2023-05-21T11:27:45.186Z,100365.16
2023-05-21T11:31:32.464Z,100360.13
2023-05-21T11:34:48.320Z,100361.53
2023-05-21T11:38:03.164Z,100360.56
2023-05-21T11:41:11.173Z,100356.69
2023-05-21T11:44:44.172Z,100351.03
2023-05-21T11:47:52.933Z,100356.81
2023-05-21T11:51:09.178Z,100350.75
2023-05-21T11:54:18.541Z,100354.66
2023-05-21T11:57:35.189Z,100347.00
2023-05-21T12:00:40.639Z,100340.31
2023-05-21T12:03:55.211Z,100349.63
2023-05-21T12:07:11.174Z,100338.28
2023-05-21T12:10:13.387Z,100349.69
2023-05-21T12:13:28.201Z,100342.78
2023-05-21T12:16:31.123Z,100337.50
2023-05-21T12:19:46.181Z,100328.22
2023-05-21T12:22:57.226Z,100329.84
2023-05-21T12:26:06.100Z,100327.69
2023-05-21T12:29:14.175Z,100317.59
2023-05-21T12:32:22.801Z,100325.81
2023-05-21T12:35:37.196Z,100319.53
2023-05-21T12:38:45.211Z,100314.91
2023-05-21T12:42:02.229Z,100306.81
2023-05-21T12:45:15.198Z,100310.09
2023-05-21T12:48:23.911Z,100300.91
2023-05-21T12:51:32.227Z,100310.66
2023-05-21T12:54:42.624Z,100306.91
2023-05-21T12:57:57.208Z,100292.47
2023-05-21T13:00:59.284Z,100294.63
2023-05-21T13:04:14.228Z,100294.91
2023-05-21T13:07:25.178Z,100286.97
2023-05-21T13:10:33.846Z,100283.19
2023-05-21T13:13:49.208Z,100278.75
2023-05-21T13:17:04.201Z,100268.91
2023-05-21T13:20:19.307Z,100270.41
2023-05-21T13:23:34.277Z,100268.91
2023-05-21T13:26:36.153Z,100266.91
2023-05-21T13:29:51.257Z,100261.44
2023-05-21T13:32:53.294Z,100262.53
2023-05-21T13:36:08.224Z,100255.69
2023-05-21T13:39:16.757Z,100254.53
2023-05-21T13:42:32.261Z,100249.41
2023-05-21T13:45:48.570Z,100260.09
2023-05-21T13:49:04.235Z,100243.50
2023-05-21T13:52:14.216Z,100254.41
2023-05-21T13:55:22.964Z,100258.81
2023-05-21T13:58:31.204Z,100243.97
2023-05-21T14:01:46.297Z,100253.41
2023-05-21T14:05:01.244Z,100239.31
2023-05-21T14:08:16.235Z,100245.56
2023-05-21T14:11:18.148Z,100243.59
2023-05-21T14:14:33.279Z,100248.25
2023-05-21T14:17:35.289Z,100244.19
2023-05-21T14:20:50.220Z,100237.81
2023-05-21T14:23:58.821Z,100231.22
2023-05-21T14:27:15.269Z,100226.84
2023-05-21T14:30:24.215Z,100234.41
2023-05-21T14:33:33.503Z,100220.31
2023-05-21T14:36:42.244Z,100228.59
2023-05-21T14:40:04.258Z,100222.53
2023-05-21T14:43:19.245Z,100228.28
2023-05-21T14:46:34.418Z,100220.44
2023-05-21T14:49:43.239Z,100225.00
2023-05-21T14:52:51.757Z,100222.31
2023-05-21T14:56:00.227Z,100215.59
2023-05-21T14:59:15.236Z,100215.09
2023-05-21T15:02:23.795Z,100214.75
2023-05-21T15:05:33.244Z,100218.62
2023-05-21T15:08:42.203Z,100212.34
2023-05-21T15:11:57.336Z,100198.03
2023-05-21T15:15:06.254Z,100207.88
2023-05-21T15:18:21.222Z,100209.03
2023-05-21T15:21:36.246Z,100204.75
2023-05-21T15:24:38.136Z,100204.72
2023-05-21T15:27:53.261Z,100200.94
2023-05-21T15:30:55.079Z,100200.13
2023-05-21T15:34:10.630Z,100199.84
2023-05-21T15:37:12.664Z,100210.09
2023-05-21T15:40:27.450Z,100210.41
2023-05-21T15:43:49.243Z,100207.19
2023-05-21T15:46:58.399Z,100202.53
2023-05-21T15:50:16.231Z,100201.06
2023-05-21T15:53:24.883Z,100208.16
2023-05-21T15:56:39.269Z,100208.56
2023-05-21T15:59:47.869Z,100201.88
2023-05-21T16:02:56.336Z,100212.09
2023-05-21T16:06:04.795Z,100212.09
2023-05-21T16:09:19.254Z,100214.06
2023-05-21T16:12:27.266Z,100210.59
2023-05-21T16:15:36.129Z,100194.56
2023-05-21T16:18:51.381Z,100210.63
2023-05-21T16:22:00.562Z,100214.56
2023-05-21T16:25:09.277Z,100211.41
2023-05-21T16:28:17.806Z,100208.66
2023-05-21T16:31:32.297Z,100218.47
2023-05-21T16:34:40.245Z,100212.22
2023-05-21T16:37:48.844Z,100209.47
2023-05-21T16:40:57.285Z,100208.28
2023-05-21T16:44:12.547Z,100219.69
2023-05-21T16:47:27.290Z,100224.00
2023-05-21T16:50:29.199Z,100224.00
2023-05-21T16:53:44.292Z,100224.41
2023-05-21T16:56:52.296Z,100224.78
2023-05-21T17:00:07.272Z,100228.69
2023-05-21T17:03:09.490Z,100228.25
2023-05-21T17:06:24.297Z,100220.78
2023-05-21T17:09:32.891Z,100240.78
2023-05-21T17:12:41.287Z,100227.84
2023-05-21T17:15:51.164Z,100230.16
2023-05-21T17:19:00.330Z,100231.34
2023-05-21T17:22:15.286Z,100232.47
2023-05-21T17:25:31.116Z,100228.53
2023-05-21T17:28:34.213Z,100235.94
2023-05-21T17:31:49.319Z,100232.78
2023-05-21T17:34:51.283Z,100226.44
2023-05-21T17:38:06.271Z,100231.09
2023-05-21T17:41:08.145Z,100232.19
2023-05-21T17:44:30.299Z,100229.34
2023-05-21T17:47:32.277Z,100237.13
2023-05-21T17:50:47.294Z,100236.69
2023-05-21T17:53:49.170Z,100238.22
2023-05-21T17:57:04.307Z,100234.19
2023-05-21T18:00:13.318Z,100235.72
2023-05-21T18:03:22.321Z,100231.00
2023-05-21T18:06:38.269Z,100232.06
2023-05-21T18:09:53.326Z,100237.84
2023-05-21T18:13:01.876Z,100231.78
2023-05-21T18:16:10.335Z,100231.25
2023-05-21T18:19:19.359Z,100237.78
2023-05-21T18:22:28.284Z,100228.25
2023-05-21T18:25:37.818Z,100221.44
2023-05-21T18:28:53.325Z,100225.28
2023-05-21T18:32:02.367Z,100224.28
2023-05-21T18:35:13.148Z,100227.19
2023-05-21T18:38:31.310Z,100224.69
2023-05-21T18:41:47.334Z,100237.09
2023-05-21T18:45:03.349Z,100235.75
2023-05-21T18:48:12.796Z,100247.28
2023-05-21T18:51:28.310Z,100237.78
2023-05-21T18:54:31.150Z,100240.34
2023-05-21T18:57:47.295Z,100244.41
2023-05-21T19:00:56.760Z,100243.06
2023-05-21T19:04:06.349Z,100250.63
2023-05-21T19:07:15.957Z,100252.09
2023-05-21T19:10:32.545Z,100214.13
2023-05-21T19:13:41.797Z,100252.56
2023-05-21T19:16:52.692Z,100253.87
2023-05-21T19:20:10.335Z,100257.63
2023-05-21T19:23:13.275Z,100267.50
2023-05-21T19:26:29.317Z,100273.53
2023-05-21T19:29:38.821Z,100259.31
2023-05-21T19:32:48.360Z,100262.59
2023-05-21T19:35:58.982Z,100275.47
2023-05-21T19:39:08.314Z,100275.56
2023-05-21T19:42:24.705Z,100277.50
2023-05-21T19:45:34.350Z,100239.53
2023-05-21T19:48:50.365Z,100271.91
2023-05-21T19:51:59.985Z,100272.62
2023-05-21T19:55:09.338Z,100277.75
2023-05-21T19:58:25.348Z,100275.97
2023-05-21T20:01:30.353Z,100271.06
2023-05-21T20:04:46.339Z,100273.38
2023-05-21T20:07:55.658Z,100276.78
2023-05-21T20:11:17.324Z,100274.59
2023-05-21T20:14:19.323Z,100277.59
2023-05-21T20:17:34.374Z,100274.69
2023-05-21T20:20:50.365Z,100281.53
2023-05-21T20:23:53.280Z,100278.63
2023-05-21T20:27:08.337Z,100278.91
2023-05-21T20:30:17.305Z,100279.34
2023-05-21T20:33:34.334Z,100278.72
2023-05-21T20:36:43.378Z,100285.91
2023-05-21T20:39:52.891Z,100262.28
2023-05-21T20:43:01.319Z,100279.59
2023-05-21T20:46:09.933Z,100278.91
2023-05-21T20:49:24.378Z,100279.53
2023-05-21T20:52:26.470Z,100275.47
2023-05-21T20:55:41.315Z,100277.16
2023-05-21T20:58:49.327Z,100275.34
2023-05-21T21:01:57.933Z,100271.91
2023-05-21T21:05:12.332Z,100261.94
2023-05-21T21:08:20.320Z,100272.00
2023-05-21T21:11:28.997Z,100274.72
2023-05-21T21:14:43.304Z,100269.28
2023-05-21T21:17:58.383Z,100268.03
2023-05-21T21:21:06.953Z,100269.00
2023-05-21T21:24:21.358Z,100269.38
2023-05-21T21:27:36.343Z,100272.78
2023-05-21T21:30:44.952Z,100255.94
2023-05-21T21:33:59.385Z,100275.47
2023-05-21T21:37:07.367Z,100273.88
2023-05-21T21:40:15.995Z,100270.72
2023-05-21T21:43:31.372Z,100285.13
2023-05-21T21:46:46.332Z,100294.66
2023-05-21T21:49:54.348Z,100291.22
2023-05-21T21:53:09.340Z,100297.09
2023-05-21T21:56:17.971Z,100300.09
2023-05-21T21:59:33.344Z,100294.56
2023-05-21T22:02:41.384Z,100294.41
2023-05-21T22:05:56.355Z,100301.28
2023-05-21T22:09:04.437Z,100274.22
2023-05-21T22:12:13.334Z,100297.75
2023-05-21T22:15:27.380Z,100298.81
2023-05-21T22:18:42.360Z,100294.97
2023-05-21T22:21:51.017Z,100299.44
2023-05-21T22:25:00.366Z,100307.19
2023-05-21T22:28:08.904Z,100317.97
2023-05-21T22:31:17.401Z,100328.31
2023-05-21T22:34:26.035Z,100321.00
2023-05-21T22:37:35.360Z,100306.06
2023-05-21T22:40:50.349Z,100300.97
2023-05-21T22:44:12.365Z,100314.78
2023-05-21T22:47:27.400Z,100305.28
2023-05-21T22:50:35.360Z,100307.09
2023-05-21T22:53:50.378Z,100324.47
2023-05-21T22:57:06.450Z,100323.03
2023-05-21T23:00:21.360Z,100315.56
2023-05-21T23:03:36.381Z,100313.75
2023-05-21T23:06:38.272Z,100317.78
2023-05-21T23:09:53.385Z,100315.56
2023-05-21T23:13:02.026Z,100310.94
2023-05-21T23:16:10.435Z,100315.72
2023-05-21T23:19:25.446Z,100318.47
2023-05-21T23:22:40.373Z,100308.75
2023-05-21T23:25:55.364Z,100310.31
2023-05-21T23:28:57.643Z,100310.09
2023-05-21T23:32:12.361Z,100318.81
2023-05-21T23:35:27.388Z,100306.62
2023-05-21T23:38:29.316Z,100310.66
2023-05-21T23:41:44.390Z,100315.09
2023-05-21T23:44:59.660Z,100306.13
2023-05-21T23:48:14.397Z,100299.13
2023-05-21T23:51:16.411Z,100303.31
2023-05-21T23:54:31.365Z,100292.47
2023-05-21T23:57:46.355Z,100296.88
